Time;durP1;ratioP1;P1;durP2;ratioP2;P2;SDS_P1;SDS_P2;PMS_P1;PMS_P2;Temp;Humidity;BMP_temperature;BMP_pressure;BME280_temperature;BME280_humidity;BME280_pressure;Samples;Min_cycle;Max_cycle;Signal;HPM_P1;HPM_P2
2021/12/07 00:00:29;;;;;;;78.87;18.87;;;;;;;;;;5139332;23;20497;-96
2021/12/07 00:02:55;;;;;;;78.27;19.10;;;;;;;;;;5032681;28;20436;-96
2021/12/07 00:05:22;;;;;;;76.20;17.10;;;;;;;;;;5033731;28;20439;-96
2021/12/07 00:07:48;;;;;;;78.67;17.80;;;;;;;;;;5027933;28;20480;-96
2021/12/07 00:10:15;;;;;;;72.87;14.87;;;;;;;;;;5028716;28;20454;-95
2021/12/07 00:12:45;;;;;;;73.33;14.23;;;;;;;;;;5028984;28;20450;-96
2021/12/07 00:15:14;;;;;;;73.80;14.50;;;;;;;;;;5029112;28;20462;-91
2021/12/07 00:17:43;;;;;;;73.77;14.90;;;;;;;;;;5028693;28;20580;-92
2021/12/07 00:20:12;;;;;;;73.80;13.73;;;;;;;;;;5028437;28;20467;-95
2021/12/07 00:22:39;;;;;;;76.97;14.80;;;;;;;;;;5030217;28;20449;-96
2021/12/07 00:25:06;;;;;;;76.97;15.00;;;;;;;;;;5029746;28;20452;-93
2021/12/07 00:27:33;;;;;;;76.40;16.33;;;;;;;;;;5028731;28;20488;-95
2021/12/07 00:29:59;;;;;;;73.60;15.00;;;;;;;;;;5029004;28;20525;-96
2021/12/07 00:32:31;;;;;;;72.50;14.50;;;;;;;;;;5027400;28;20444;-93
2021/12/07 00:35:19;;;;;;;70.77;13.00;;;;;;;;;;5027376;28;20466;-96
2021/12/07 00:37:47;;;;;;;73.10;13.43;;;;;;;;;;5029790;28;20489;-95
2021/12/07 00:40:15;;;;;;;69.50;12.20;;;;;;;;;;5029432;28;20437;-95
2021/12/07 00:42:41;;;;;;;71.50;11.77;;;;;;;;;;5027371;28;21181;-95
2021/12/07 00:45:09;;;;;;;71.43;13.70;;;;;;;;;;5027580;28;20459;-95
2021/12/07 00:47:35;;;;;;;73.00;13.37;;;;;;;;;;5028852;28;20488;-94
2021/12/07 00:50:03;;;;;;;77.70;15.60;;;;;;;;;;5029113;28;20436;-94
2021/12/07 00:52:30;;;;;;;80.00;16.80;;;;;;;;;;5028259;28;20473;-93
2021/12/07 00:54:56;;;;;;;79.73;16.67;;;;;;;;;;5028459;28;20445;-93
2021/12/07 00:57:25;;;;;;;78.20;17.70;;;;;;;;;;5027355;28;20440;-93
2021/12/07 00:59:51;;;;;;;74.37;15.87;;;;;;;;;;5026335;28;20480;-94
2021/12/07 01:02:18;;;;;;;77.57;17.23;;;;;;;;;;5024728;28;20467;-95
2021/12/07 01:04:51;;;;;;;78.27;17.10;;;;;;;;;;5026683;28;20454;-94
2021/12/07 01:07:37;;;;;;;76.10;16.50;;;;;;;;;;5027855;28;20516;-95
2021/12/07 01:26:38;;;;;;;74.93;15.90;;;;;;;;;;5029145;28;20495;-96
2021/12/07 01:29:05;;;;;;;80.97;16.63;;;;;;;;;;5029535;28;20476;-96
2021/12/07 01:31:40;;;;;;;76.93;16.43;;;;;;;;;;5031750;28;20444;-96
2021/12/07 01:34:22;;;;;;;77.30;14.37;;;;;;;;;;5030067;28;20437;-95
2021/12/07 01:37:10;;;;;;;75.40;14.60;;;;;;;;;;5032698;28;20491;-96
2021/12/07 01:39:59;;;;;;;72.80;14.10;;;;;;;;;;5034153;28;20670;-96
2021/12/07 01:45:37;;;;;;;69.37;11.77;;;;;;;;;;5037720;28;20463;-96
2021/12/07 01:49:35;;;;;;;70.10;12.20;;;;;;;;;;5030094;28;20488;-96
2021/12/07 01:51:05;;;;;;;69.93;12.70;;;;;;;;;;5030400;28;20445;-96
2021/12/07 02:01:56;;;;;;;70.13;12.43;;;;;;;;;;5027584;28;20430;-95
2021/12/07 02:04:23;;;;;;;69.70;11.87;;;;;;;;;;5028416;28;20448;-95
2021/12/07 02:06:49;;;;;;;67.97;11.77;;;;;;;;;;5026023;28;20489;-95
2021/12/07 02:09:16;;;;;;;67.43;11.33;;;;;;;;;;5026031;28;20448;-96
2021/12/07 02:11:48;;;;;;;69.20;10.70;;;;;;;;;;5028040;28;20451;-96
2021/12/07 02:14:18;;;;;;;68.33;11.03;;;;;;;;;;5010331;28;20461;-95
2021/12/07 02:16:45;;;;;;;68.90;12.40;;;;;;;;;;5028235;28;21022;-95
2021/12/07 02:19:12;;;;;;;83.37;18.93;;;;;;;;;;5027273;28;20449;-96
2021/12/07 02:21:40;;;;;;;69.13;12.90;;;;;;;;;;5032689;28;20444;-96
2021/12/07 02:24:06;;;;;;;70.33;10.87;;;;;;;;;;5030535;28;20471;-96
2021/12/07 02:26:33;;;;;;;69.90;12.03;;;;;;;;;;5032302;28;20482;-96
2021/12/07 02:29:00;;;;;;;72.00;13.17;;;;;;;;;;5031202;28;20446;-96
2021/12/07 02:31:27;;;;;;;70.67;11.87;;;;;;;;;;5032979;28;20455;-96
2021/12/07 02:33:54;;;;;;;68.00;11.67;;;;;;;;;;5034944;28;20444;-96
2021/12/07 02:36:21;;;;;;;68.80;11.43;;;;;;;;;;5033065;28;20468;-96
2021/12/07 02:38:49;;;;;;;66.10;10.30;;;;;;;;;;5035871;28;20504;-96
2021/12/07 02:41:16;;;;;;;69.30;11.20;;;;;;;;;;5037163;28;20420;-96
2021/12/07 02:43:44;;;;;;;68.77;10.93;;;;;;;;;;5032891;28;20506;-96
2021/12/07 02:46:11;;;;;;;68.30;11.20;;;;;;;;;;5036741;28;20431;-96
2021/12/07 02:48:37;;;;;;;68.97;11.43;;;;;;;;;;5034331;28;20448;-96
2021/12/07 02:51:04;;;;;;;70.30;12.20;;;;;;;;;;5031880;28;20460;-96
2021/12/07 02:53:31;;;;;;;69.43;12.30;;;;;;;;;;5031757;28;20471;-96
2021/12/07 02:56:00;;;;;;;71.53;12.57;;;;;;;;;;5032669;28;20446;-96
2021/12/07 02:58:27;;;;;;;75.63;12.60;;;;;;;;;;5030217;28;20459;-96
2021/12/07 03:01:05;;;;;;;71.70;12.27;;;;;;;;;;5026976;28;20488;-96
2021/12/07 03:03:36;;;;;;;75.67;15.40;;;;;;;;;;5036934;28;20458;-96
2021/12/07 03:06:13;;;;;;;77.90;13.13;;;;;;;;;;5033239;28;20445;-95
2021/12/07 03:09:29;;;;;;;71.37;11.97;;;;;;;;;;5035317;28;20455;-95
2021/12/07 03:28:35;;;;;;;73.47;12.30;;;;;;;;;;4950678;29;20496;-96
2021/12/07 03:31:02;;;;;;;76.83;12.10;;;;;;;;;;4950438;29;20481;-96
2021/12/07 03:33:28;;;;;;;68.97;12.10;;;;;;;;;;4985195;28;20440;-96
2021/12/07 03:35:55;;;;;;;70.17;12.47;;;;;;;;;;5029536;28;20458;-96
2021/12/07 03:38:22;;;;;;;70.10;12.60;;;;;;;;;;5031083;28;21054;-96
2021/12/07 03:40:50;;;;;;;73.23;13.20;;;;;;;;;;5034685;28;20436;-96
2021/12/07 03:43:18;;;;;;;74.17;14.07;;;;;;;;;;5036787;28;20444;-96
2021/12/07 03:45:50;;;;;;;72.87;13.47;;;;;;;;;;5040260;28;20547;-96
2021/12/07 03:48:21;;;;;;;73.40;14.17;;;;;;;;;;5040011;28;20511;-96
2021/12/07 03:50:48;;;;;;;72.27;13.87;;;;;;;;;;5020912;28;20444;-96
2021/12/07 03:53:16;;;;;;;73.50;14.97;;;;;;;;;;5037247;28;20445;-96
2021/12/07 03:55:44;;;;;;;73.43;15.43;;;;;;;;;;5040944;28;20553;-96
2021/12/07 03:58:11;;;;;;;77.77;16.13;;;;;;;;;;5037757;28;20449;-96
2021/12/07 04:00:42;;;;;;;79.37;17.10;;;;;;;;;;5041406;28;20501;-96
2021/12/07 04:03:13;;;;;;;85.27;19.40;;;;;;;;;;5033235;28;20446;-96
2021/12/07 04:05:45;;;;;;;92.20;22.10;;;;;;;;;;5039478;28;20442;-96
2021/12/07 04:08:12;;;;;;;90.87;21.23;;;;;;;;;;5010454;28;20480;-96
2021/12/07 04:10:39;;;;;;;79.67;18.30;;;;;;;;;;5042766;28;20445;-96
2021/12/07 04:15:51;;;;;;;78.07;15.60;;;;;;;;;;5044320;28;20432;-96
2021/12/07 04:21:08;;;;;;;82.13;17.60;;;;;;;;;;5116665;22;20567;-96
2021/12/07 04:23:42;;;;;;;82.17;15.80;;;;;;;;;;5042769;28;20508;-96
2021/12/07 04:26:14;;;;;;;69.37;10.80;;;;;;;;;;5045323;28;20444;-96
2021/12/07 04:28:47;;;;;;;67.73;10.77;;;;;;;;;;5037745;28;20484;-96
2021/12/07 04:31:20;;;;;;;67.57;10.70;;;;;;;;;;5026858;28;20495;-96
2021/12/07 04:59:45;;;;;;;72.03;14.47;;;;;;;;;;5026071;28;20454;-95
2021/12/07 05:02:11;;;;;;;74.53;15.80;;;;;;;;;;5028236;28;20490;-96
2021/12/07 05:04:38;;;;;;;72.27;14.10;;;;;;;;;;5028356;28;20484;-96
2021/12/07 05:07:10;;;;;;;73.77;14.93;;;;;;;;;;5028175;28;20482;-96
2021/12/07 05:12:25;;;;;;;80.13;17.80;;;;;;;;;;5015160;28;20427;-96
2021/12/07 05:15:00;;;;;;;80.90;17.47;;;;;;;;;;5025428;28;21200;-96
2021/12/07 05:17:44;;;;;;;78.63;17.87;;;;;;;;;;5028218;28;20447;-96
2021/12/07 05:26:07;;;;;;;72.70;14.63;;;;;;;;;;5028341;28;20438;-96
2021/12/07 05:39:34;;;;;;;82.07;16.47;;;;;;;;;;5031212;28;20962;-96
2021/12/07 05:42:02;;;;;;;85.00;16.27;;;;;;;;;;5027922;28;20451;-96
2021/12/07 05:44:28;;;;;;;81.67;16.63;;;;;;;;;;5026398;28;20545;-93
2021/12/07 05:46:56;;;;;;;77.47;16.47;;;;;;;;;;5026322;28;20476;-93
2021/12/07 05:49:23;;;;;;;86.90;17.13;;;;;;;;;;5026467;28;20451;-92
2021/12/07 05:51:49;;;;;;;69.77;12.13;;;;;;;;;;5026830;28;20444;-92
2021/12/07 05:54:16;;;;;;;67.40;11.00;;;;;;;;;;5025354;28;20469;-92
2021/12/07 05:56:42;;;;;;;69.10;11.50;;;;;;;;;;5025840;28;20497;-95
2021/12/07 05:59:08;;;;;;;66.30;10.10;;;;;;;;;;5030213;28;20467;-92
2021/12/07 06:01:35;;;;;;;71.03;11.30;;;;;;;;;;5030963;28;20475;-93
2021/12/07 06:04:03;;;;;;;83.43;20.50;;;;;;;;;;5029865;28;21045;-94
2021/12/07 06:06:29;;;;;;;78.57;17.27;;;;;;;;;;5030083;28;20451;-93
2021/12/07 06:08:56;;;;;;;72.70;12.80;;;;;;;;;;5029322;28;20491;-93
2021/12/07 06:11:25;;;;;;;74.83;13.93;;;;;;;;;;5030411;28;20803;-94
2021/12/07 06:13:51;;;;;;;67.13;10.30;;;;;;;;;;5032138;28;20450;-94
2021/12/07 06:16:17;;;;;;;64.90;9.50;;;;;;;;;;5030497;28;20474;-92
2021/12/07 06:18:44;;;;;;;67.90;10.00;;;;;;;;;;5032067;28;20459;-93
2021/12/07 06:21:13;;;;;;;67.70;10.83;;;;;;;;;;5031919;28;20435;-95
2021/12/07 06:23:40;;;;;;;69.63;11.67;;;;;;;;;;5031557;28;20447;-92
2021/12/07 06:26:06;;;;;;;67.67;11.00;;;;;;;;;;5026136;28;20451;-95
2021/12/07 06:28:33;;;;;;;73.67;12.07;;;;;;;;;;5032948;28;20893;-93
2021/12/07 06:30:59;;;;;;;68.87;11.20;;;;;;;;;;5031670;28;20521;-95
2021/12/07 06:33:27;;;;;;;77.80;13.00;;;;;;;;;;5038702;28;20444;-93
2021/12/07 06:35:57;;;;;;;78.67;13.60;;;;;;;;;;5044864;28;20431;-94
2021/12/07 06:38:25;;;;;;;69.03;11.17;;;;;;;;;;5036738;28;20454;-94
2021/12/07 06:40:51;;;;;;;64.37;9.47;;;;;;;;;;5030469;28;20511;-94
2021/12/07 06:43:18;;;;;;;68.07;10.40;;;;;;;;;;5029336;28;20495;-93
2021/12/07 06:45:46;;;;;;;71.77;12.23;;;;;;;;;;5028785;28;20484;-95
2021/12/07 06:48:13;;;;;;;69.93;11.40;;;;;;;;;;5031975;28;20491;-93
2021/12/07 06:50:39;;;;;;;67.80;10.77;;;;;;;;;;5032120;28;20482;-96
2021/12/07 06:53:06;;;;;;;75.87;12.00;;;;;;;;;;5030764;28;20479;-96
2021/12/07 06:55:34;;;;;;;73.67;11.60;;;;;;;;;;5029712;28;20427;-93
2021/12/07 06:58:01;;;;;;;68.40;10.77;;;;;;;;;;5030480;28;21983;-94
2021/12/07 07:00:27;;;;;;;68.17;10.63;;;;;;;;;;5029909;28;20454;-93
2021/12/07 07:02:55;;;;;;;69.17;9.90;;;;;;;;;;5030558;28;20443;-95
2021/12/07 07:05:22;;;;;;;68.80;10.57;;;;;;;;;;5013162;28;20438;-93
2021/12/07 07:07:48;;;;;;;70.33;11.10;;;;;;;;;;5029847;28;20491;-92
2021/12/07 07:10:16;;;;;;;67.77;10.60;;;;;;;;;;5030989;28;20503;-92
2021/12/07 07:12:44;;;;;;;69.27;9.50;;;;;;;;;;5030955;28;20474;-94
2021/12/07 07:15:11;;;;;;;66.73;9.87;;;;;;;;;;5025836;28;20522;-95
2021/12/07 07:17:37;;;;;;;67.17;10.67;;;;;;;;;;5029825;28;20998;-94
2021/12/07 07:20:05;;;;;;;66.80;10.80;;;;;;;;;;5029334;28;20494;-93
2021/12/07 07:22:32;;;;;;;68.30;10.60;;;;;;;;;;5028463;28;20497;-93
2021/12/07 07:24:58;;;;;;;70.73;12.10;;;;;;;;;;5028493;28;20448;-94
2021/12/07 07:27:25;;;;;;;71.47;10.83;;;;;;;;;;5029170;28;20509;-94
2021/12/07 07:29:53;;;;;;;69.07;10.80;;;;;;;;;;5030229;28;20491;-93
2021/12/07 07:32:20;;;;;;;69.17;11.70;;;;;;;;;;5032130;28;20439;-92
2021/12/07 07:34:46;;;;;;;71.03;10.67;;;;;;;;;;5029202;28;20769;-93
2021/12/07 07:37:13;;;;;;;77.03;10.80;;;;;;;;;;5028199;28;20505;-92
2021/12/07 07:39:41;;;;;;;68.47;10.57;;;;;;;;;;5028332;28;20451;-92
2021/12/07 07:42:07;;;;;;;74.33;10.00;;;;;;;;;;5029338;28;20459;-93
2021/12/07 07:44:34;;;;;;;78.83;12.97;;;;;;;;;;5029272;28;21043;-92
2021/12/07 07:47:02;;;;;;;73.23;11.80;;;;;;;;;;5028656;28;20475;-91
2021/12/07 07:49:29;;;;;;;70.37;11.37;;;;;;;;;;5028982;28;20496;-92
2021/12/07 07:51:55;;;;;;;70.37;11.60;;;;;;;;;;5028204;28;20448;-90
2021/12/07 07:54:22;;;;;;;72.33;11.37;;;;;;;;;;5028103;28;20455;-91
2021/12/07 07:56:48;;;;;;;71.57;10.93;;;;;;;;;;5027956;28;20440;-92
2021/12/07 07:59:15;;;;;;;66.47;10.30;;;;;;;;;;5027413;28;21066;-92
2021/12/07 08:01:41;;;;;;;69.10;10.90;;;;;;;;;;5027919;28;21583;-94
2021/12/07 08:04:09;;;;;;;65.83;9.00;;;;;;;;;;5029390;28;20505;-94
2021/12/07 08:06:35;;;;;;;66.60;9.67;;;;;;;;;;5029138;28;20466;-94
2021/12/07 08:09:03;;;;;;;69.20;11.30;;;;;;;;;;5029502;28;20495;-91
2021/12/07 08:11:30;;;;;;;69.20;10.10;;;;;;;;;;5028665;28;20542;-96
2021/12/07 08:13:59;;;;;;;65.00;9.17;;;;;;;;;;5029791;28;20451;-94
2021/12/07 08:16:26;;;;;;;65.70;9.90;;;;;;;;;;5029894;28;20452;-95
2021/12/07 08:18:53;;;;;;;66.23;9.90;;;;;;;;;;5028416;28;21858;-95
2021/12/07 08:21:22;;;;;;;65.10;10.07;;;;;;;;;;5027839;28;20439;-96
2021/12/07 08:23:50;;;;;;;65.40;9.50;;;;;;;;;;5027044;28;20438;-95
2021/12/07 08:26:17;;;;;;;66.00;9.83;;;;;;;;;;5027716;28;20452;-96
2021/12/07 08:28:44;;;;;;;69.43;10.10;;;;;;;;;;5030436;28;20496;-95
2021/12/07 08:31:10;;;;;;;68.10;9.60;;;;;;;;;;5029970;28;20455;-93
2021/12/07 08:33:37;;;;;;;65.33;9.93;;;;;;;;;;5028025;28;20474;-94
2021/12/07 08:36:04;;;;;;;65.57;10.30;;;;;;;;;;5028217;28;20458;-96
2021/12/07 08:38:32;;;;;;;66.47;9.87;;;;;;;;;;5029233;28;20451;-95
2021/12/07 08:40:58;;;;;;;64.90;8.90;;;;;;;;;;5026635;28;20448;-92
2021/12/07 08:43:26;;;;;;;64.80;9.33;;;;;;;;;;5026723;28;20444;-92
2021/12/07 08:45:53;;;;;;;64.87;9.40;;;;;;;;;;5025132;28;20498;-91
2021/12/07 08:48:19;;;;;;;68.07;10.63;;;;;;;;;;5027446;28;20482;-92
2021/12/07 08:50:47;;;;;;;65.50;10.20;;;;;;;;;;5026048;28;20935;-93
2021/12/07 08:53:15;;;;;;;65.40;9.87;;;;;;;;;;5027098;28;20450;-95
2021/12/07 09:01:21;;;;;;;67.77;10.33;;;;;;;;;;5023492;28;20442;-92
2021/12/07 09:03:49;;;;;;;64.43;9.50;;;;;;;;;;5026317;28;20522;-94
2021/12/07 09:06:15;;;;;;;66.27;9.80;;;;;;;;;;5025296;28;20477;-94
2021/12/07 09:08:42;;;;;;;65.87;10.20;;;;;;;;;;5024699;28;20490;-95
2021/12/07 09:11:10;;;;;;;65.27;10.27;;;;;;;;;;5027731;28;21226;-92
2021/12/07 09:13:37;;;;;;;66.73;10.80;;;;;;;;;;5027858;28;20435;-95
2021/12/07 09:16:04;;;;;;;64.97;9.43;;;;;;;;;;5027988;28;20976;-95
2021/12/07 09:18:30;;;;;;;65.87;9.00;;;;;;;;;;5027075;28;20455;-93
2021/12/07 09:20:57;;;;;;;64.37;9.30;;;;;;;;;;5027450;28;20463;-94
2021/12/07 09:23:24;;;;;;;65.30;9.20;;;;;;;;;;5029387;28;20428;-96
2021/12/07 09:25:57;;;;;;;66.73;9.90;;;;;;;;;;5057041;23;20475;-96
2021/12/07 09:28:25;;;;;;;65.77;9.23;;;;;;;;;;5031084;28;20491;-96
2021/12/07 09:30:52;;;;;;;67.77;9.27;;;;;;;;;;5031425;28;20479;-96
2021/12/07 09:33:19;;;;;;;66.80;10.60;;;;;;;;;;5034426;28;20435;-96
2021/12/07 09:35:46;;;;;;;66.67;10.20;;;;;;;;;;5033110;28;20530;-93
2021/12/07 09:38:13;;;;;;;68.07;10.50;;;;;;;;;;5029466;28;20443;-93
2021/12/07 09:40:41;;;;;;;65.97;9.87;;;;;;;;;;5033360;28;20455;-96
2021/12/07 09:43:08;;;;;;;66.37;10.80;;;;;;;;;;5037355;28;20423;-95
2021/12/07 09:45:36;;;;;;;67.40;10.97;;;;;;;;;;5045214;28;20472;-95
2021/12/07 09:48:04;;;;;;;66.87;10.70;;;;;;;;;;5033435;28;20439;-92
2021/12/07 09:50:31;;;;;;;66.83;10.80;;;;;;;;;;5031307;28;20447;-93
2021/12/07 09:52:58;;;;;;;65.60;10.30;;;;;;;;;;5030785;28;20447;-94
2021/12/07 09:55:25;;;;;;;67.30;10.80;;;;;;;;;;5029719;28;20454;-94
2021/12/07 09:57:52;;;;;;;71.80;11.27;;;;;;;;;;5028607;28;20444;-94
2021/12/07 10:00:22;;;;;;;66.30;10.90;;;;;;;;;;5030608;28;20460;-95
2021/12/07 10:02:51;;;;;;;64.73;9.93;;;;;;;;;;5030576;28;20440;-94
2021/12/07 10:05:19;;;;;;;64.00;9.27;;;;;;;;;;5031645;28;20452;-95
2021/12/07 10:07:52;;;;;;;67.70;11.20;;;;;;;;;;5042119;28;20443;-96
2021/12/07 10:10:21;;;;;;;65.90;10.77;;;;;;;;;;5038381;28;20499;-96
2021/12/07 10:16:24;;;;;;;66.83;10.20;;;;;;;;;;5052282;28;20474;-96
2021/12/07 10:22:08;;;;;;;67.40;10.70;;;;;;;;;;5051501;28;20426;-96
2021/12/07 10:24:49;;;;;;;66.53;10.13;;;;;;;;;;5062715;23;20546;-96
2021/12/07 10:27:31;;;;;;;67.30;11.03;;;;;;;;;;5052030;23;20502;-96
2021/12/07 10:29:58;;;;;;;69.67;11.60;;;;;;;;;;5032622;28;20549;-95
2021/12/07 10:32:43;;;;;;;67.87;11.00;;;;;;;;;;5035498;28;20428;-96
2021/12/07 10:35:24;;;;;;;67.50;10.70;;;;;;;;;;5038777;28;20440;-96
2021/12/07 10:46:43;;;;;;;66.17;10.67;;;;;;;;;;5009842;28;20515;-96
2021/12/07 10:51:40;;;;;;;65.70;10.20;;;;;;;;;;5041353;23;20473;-96
2021/12/07 10:54:08;;;;;;;65.77;10.13;;;;;;;;;;5020187;28;20459;-95
2021/12/07 11:12:50;;;;;;;65.97;10.30;;;;;;;;;;5585102;23;20692;-93
2021/12/07 11:15:25;;;;;;;67.07;9.90;;;;;;;;;;5022875;28;20503;-96
2021/12/07 11:18:13;;;;;;;67.80;10.10;;;;;;;;;;5027105;28;20450;-96
2021/12/07 11:20:45;;;;;;;73.50;12.37;;;;;;;;;;5028982;28;20409;-96
2021/12/07 11:23:13;;;;;;;65.80;10.80;;;;;;;;;;5331416;23;20479;-96
2021/12/07 11:31:24;;;;;;;66.07;10.13;;;;;;;;;;5032532;23;20434;-96
2021/12/07 11:34:23;;;;;;;66.97;10.07;;;;;;;;;;5026160;23;20491;-96
2021/12/07 11:36:50;;;;;;;65.20;10.17;;;;;;;;;;5056830;23;20512;-94
2021/12/07 11:42:51;;;;;;;65.97;9.77;;;;;;;;;;5043303;28;20414;-96
2021/12/07 11:45:29;;;;;;;64.77;10.10;;;;;;;;;;5032354;22;20505;-95
2021/12/07 11:47:57;;;;;;;63.80;9.10;;;;;;;;;;4986718;28;20442;-95
2021/12/07 11:55:49;;;;;;;67.37;11.40;;;;;;;;;;5446850;22;20268;-96
2021/12/07 12:10:43;;;;;;;67.60;11.47;;;;;;;;;;5339702;23;20461;-96
2021/12/07 12:19:22;;;;;;;67.00;11.50;;;;;;;;;;5055022;22;20486;-96
2021/12/07 12:35:30;;;;;;;65.60;9.90;;;;;;;;;;5313385;23;20503;-94
2021/12/07 12:48:36;;;;;;;65.90;10.70;;;;;;;;;;5263301;22;20462;-94
2021/12/07 12:54:00;;;;;;;68.20;11.20;;;;;;;;;;5265435;23;20486;-96
2021/12/07 12:56:49;;;;;;;71.70;11.53;;;;;;;;;;5024022;28;20452;-96
2021/12/07 12:59:18;;;;;;;67.57;10.83;;;;;;;;;;5181372;22;20508;-96
2021/12/07 13:24:39;;;;;;;67.00;10.20;;;;;;;;;;5023050;28;20855;-94
2021/12/07 13:29:52;;;;;;;66.80;10.80;;;;;;;;;;5013098;28;20457;-96
2021/12/07 13:32:25;;;;;;;68.23;12.37;;;;;;;;;;5041413;23;20481;-96
2021/12/07 13:35:30;;;;;;;68.17;11.90;;;;;;;;;;5394892;23;20482;-96
2021/12/07 13:37:59;;;;;;;66.50;10.73;;;;;;;;;;5191019;23;20503;-96
2021/12/07 13:40:27;;;;;;;66.80;11.37;;;;;;;;;;5021720;28;20440;-96
2021/12/07 13:45:51;;;;;;;67.50;11.10;;;;;;;;;;5119099;23;20515;-96
2021/12/07 13:50:53;;;;;;;66.73;11.13;;;;;;;;;;4999927;23;20476;-94
2021/12/07 13:53:20;;;;;;;68.30;11.83;;;;;;;;;;5039913;23;20920;-95
2021/12/07 13:55:51;;;;;;;67.77;11.37;;;;;;;;;;5016963;28;20476;-94
2021/12/07 14:00:57;;;;;;;68.87;9.67;;;;;;;;;;5160200;23;20491;-95
2021/12/07 14:03:24;;;;;;;66.90;10.67;;;;;;;;;;5037566;28;20458;-96
2021/12/07 14:11:38;;;;;;;67.80;10.53;;;;;;;;;;4873444;26;20506;-95
2021/12/07 14:14:07;;;;;;;68.40;11.20;;;;;;;;;;5020433;28;20464;-95
2021/12/07 14:19:12;;;;;;;69.90;11.93;;;;;;;;;;5055016;23;20475;-95
2021/12/07 14:21:46;;;;;;;65.77;11.03;;;;;;;;;;5061229;23;20483;-96
2021/12/07 14:24:26;;;;;;;67.47;11.30;;;;;;;;;;5051034;28;20425;-96
2021/12/07 14:27:11;;;;;;;72.03;11.93;;;;;;;;;;5050389;28;20510;-95
2021/12/07 14:29:59;;;;;;;67.00;10.93;;;;;;;;;;5067796;22;20494;-95
2021/12/07 14:32:29;;;;;;;67.70;11.37;;;;;;;;;;5051226;28;20438;-94
2021/12/07 14:34:59;;;;;;;65.90;11.10;;;;;;;;;;5048040;28;20454;-96
2021/12/07 14:37:55;;;;;;;68.20;11.70;;;;;;;;;;5065304;22;20497;-95
2021/12/07 14:40:31;;;;;;;66.70;11.27;;;;;;;;;;5052821;28;20466;-96
2021/12/07 14:43:00;;;;;;;69.13;12.87;;;;;;;;;;5052931;28;20441;-94
2021/12/07 14:45:30;;;;;;;69.90;12.30;;;;;;;;;;5049454;22;20498;-96
2021/12/07 14:48:00;;;;;;;69.70;12.57;;;;;;;;;;5233603;22;20461;-96
2021/12/07 14:50:26;;;;;;;68.87;11.40;;;;;;;;;;5023949;28;20461;-95
2021/12/07 14:53:06;;;;;;;68.38;11.80;;;;;;;;;;5023790;28;20425;-96
2021/12/07 15:01:06;;;;;;;67.20;12.10;;;;;;;;;;5169482;22;20490;-95
2021/12/07 15:03:34;;;;;;;67.40;11.70;;;;;;;;;;5110450;22;21922;-96
2021/12/07 15:06:03;;;;;;;67.77;11.83;;;;;;;;;;5193947;22;21383;-96
2021/12/07 15:08:29;;;;;;;70.80;12.80;;;;;;;;;;5344180;22;20579;-95
2021/12/07 15:10:59;;;;;;;69.50;12.20;;;;;;;;;;5093424;23;20531;-96
2021/12/07 15:13:51;;;;;;;68.18;11.88;;;;;;;;;;5103850;22;20498;-96
2021/12/07 15:19:23;;;;;;;68.93;12.47;;;;;;;;;;5309341;22;20293;-94
2021/12/07 15:21:52;;;;;;;69.80;12.70;;;;;;;;;;5591922;22;21246;-96
2021/12/07 15:33:11;;;;;;;70.30;12.00;;;;;;;;;;5029190;28;20890;-96
2021/12/07 15:48:08;;;;;;;68.90;12.50;;;;;;;;;;5361525;22;20503;-96
2021/12/07 15:50:38;;;;;;;69.60;11.50;;;;;;;;;;5086909;22;20475;-94
2021/12/07 15:53:15;;;;;;;70.07;12.80;;;;;;;;;;5191166;22;20516;-95
2021/12/07 15:58:25;;;;;;;69.90;12.23;;;;;;;;;;5030840;28;20474;-97
2021/12/07 16:01:19;;;;;;;67.60;11.30;;;;;;;;;;5068484;22;20502;-96
2021/12/07 16:03:51;;;;;;;70.40;11.90;;;;;;;;;;5053757;28;20429;-96
2021/12/07 16:06:19;;;;;;;66.40;10.90;;;;;;;;;;5049700;28;20427;-95
2021/12/07 16:08:48;;;;;;;69.50;12.43;;;;;;;;;;5048435;28;20448;-96
2021/12/07 16:11:23;;;;;;;68.30;12.05;;;;;;;;;;5049140;28;20475;-96
2021/12/07 16:13:52;;;;;;;68.60;12.00;;;;;;;;;;5047852;28;20218;-95
2021/12/07 16:16:29;;;;;;;69.23;12.23;;;;;;;;;;5050673;28;20585;-95
2021/12/07 16:18:58;;;;;;;67.23;11.53;;;;;;;;;;5047199;28;20451;-96
2021/12/07 16:24:11;;;;;;;67.80;10.40;;;;;;;;;;5052807;28;20439;-96
2021/12/07 16:26:53;;;;;;;70.53;11.93;;;;;;;;;;5055073;28;21017;-96
2021/12/07 16:32:36;;;;;;;68.67;12.53;;;;;;;;;;5237477;22;20548;-95
2021/12/07 16:35:05;;;;;;;68.43;12.93;;;;;;;;;;5044696;28;20434;-96
2021/12/07 16:37:33;;;;;;;70.80;12.50;;;;;;;;;;5046266;28;20203;-96
2021/12/07 16:39:59;;;;;;;69.25;13.27;;;;;;;;;;5046186;28;20183;-96
2021/12/07 16:42:26;;;;;;;68.97;12.50;;;;;;;;;;5045270;28;20590;-96
2021/12/07 16:44:52;;;;;;;69.63;13.20;;;;;;;;;;5044722;28;20212;-94
2021/12/07 16:47:19;;;;;;;68.43;11.83;;;;;;;;;;5045253;28;20198;-96
2021/12/07 16:49:47;;;;;;;68.18;12.40;;;;;;;;;;5045425;28;20431;-96
2021/12/07 16:52:15;;;;;;;67.80;11.52;;;;;;;;;;5045903;28;20188;-95
2021/12/07 16:54:42;;;;;;;67.90;12.90;;;;;;;;;;5039655;28;20199;-96
2021/12/07 16:57:08;;;;;;;69.22;12.90;;;;;;;;;;5042608;28;20188;-95
2021/12/07 16:59:38;;;;;;;69.15;12.68;;;;;;;;;;5042474;28;20234;-96
2021/12/07 17:02:09;;;;;;;70.47;12.73;;;;;;;;;;5044806;28;20194;-95
2021/12/07 17:04:35;;;;;;;72.50;13.17;;;;;;;;;;5044172;28;20199;-95
2021/12/07 17:07:03;;;;;;;70.83;13.90;;;;;;;;;;5040107;28;20481;-95
2021/12/07 17:09:32;;;;;;;70.70;12.90;;;;;;;;;;5041113;28;20464;-96
2021/12/07 17:11:59;;;;;;;69.78;12.57;;;;;;;;;;5040661;28;20266;-95
2021/12/07 17:14:31;;;;;;;69.22;12.65;;;;;;;;;;5040857;28;20229;-96
2021/12/07 17:16:57;;;;;;;72.60;13.93;;;;;;;;;;5039680;28;20236;-95
2021/12/07 17:19:24;;;;;;;69.50;13.70;;;;;;;;;;5040868;28;20692;-95
2021/12/07 17:30:17;;;;;;;70.87;12.90;;;;;;;;;;5043573;28;20474;-96
2021/12/07 17:32:43;;;;;;;69.18;12.70;;;;;;;;;;5039804;28;21911;-95
2021/12/07 17:35:10;;;;;;;67.27;11.83;;;;;;;;;;5041749;28;20196;-95
2021/12/07 17:37:40;;;;;;;69.97;13.00;;;;;;;;;;5041843;28;20462;-95
2021/12/07 17:40:10;;;;;;;67.07;11.80;;;;;;;;;;5041886;28;20204;-96
2021/12/07 17:42:43;;;;;;;68.07;12.00;;;;;;;;;;5043190;28;20437;-96
2021/12/07 17:45:10;;;;;;;69.43;12.10;;;;;;;;;;5042649;28;20199;-96
2021/12/07 17:50:20;;;;;;;69.32;12.32;;;;;;;;;;5033277;28;20286;-95
2021/12/07 17:52:47;;;;;;;68.32;12.32;;;;;;;;;;5056418;28;20191;-96
2021/12/07 17:55:25;;;;;;;67.53;12.07;;;;;;;;;;5050401;28;20210;-96
2021/12/07 18:00:42;;;;;;;67.63;12.25;;;;;;;;;;5055815;28;20269;-96
2021/12/07 18:06:00;;;;;;;68.90;11.80;;;;;;;;;;4997463;28;20457;-96
2021/12/07 18:11:03;;;;;;;67.90;11.63;;;;;;;;;;5293468;22;20520;-95
2021/12/07 18:13:30;;;;;;;68.33;11.87;;;;;;;;;;5046800;28;20200;-95
2021/12/07 18:15:56;;;;;;;69.20;12.20;;;;;;;;;;5047586;28;20442;-93
2021/12/07 18:18:23;;;;;;;68.87;12.30;;;;;;;;;;5047966;28;20542;-95
2021/12/07 18:20:50;;;;;;;69.13;12.47;;;;;;;;;;5047602;28;20438;-96
2021/12/07 18:23:20;;;;;;;73.38;11.73;;;;;;;;;;5046706;28;20497;-94
2021/12/07 18:25:50;;;;;;;67.50;11.40;;;;;;;;;;5047915;28;20206;-95
2021/12/07 18:28:32;;;;;;;69.40;11.80;;;;;;;;;;5046585;28;20454;-96
2021/12/07 18:30:58;;;;;;;70.97;11.60;;;;;;;;;;5044853;28;20745;-96
2021/12/07 18:33:27;;;;;;;68.18;11.88;;;;;;;;;;5045680;28;20225;-95
2021/12/07 18:35:54;;;;;;;69.85;12.55;;;;;;;;;;5046139;28;20233;-96
2021/12/07 18:38:22;;;;;;;69.32;12.50;;;;;;;;;;5047510;28;20196;-95
2021/12/07 18:40:50;;;;;;;71.07;12.33;;;;;;;;;;5046963;28;20254;-96
2021/12/07 18:43:18;;;;;;;70.05;12.30;;;;;;;;;;5047372;28;20470;-95
2021/12/07 18:45:48;;;;;;;69.57;12.07;;;;;;;;;;5045563;28;20207;-96
2021/12/07 18:48:14;;;;;;;69.90;12.93;;;;;;;;;;5044478;28;20797;-96
2021/12/07 18:50:41;;;;;;;69.85;12.90;;;;;;;;;;5043841;28;20474;-96
2021/12/07 18:53:08;;;;;;;68.40;11.57;;;;;;;;;;5046638;28;20192;-95
2021/12/07 18:55:36;;;;;;;71.07;12.32;;;;;;;;;;5048326;28;20549;-95
2021/12/07 18:58:04;;;;;;;68.18;11.70;;;;;;;;;;5047625;28;20225;-96
2021/12/07 19:00:32;;;;;;;70.70;12.95;;;;;;;;;;5045064;28;20200;-96
2021/12/07 19:02:59;;;;;;;70.97;11.85;;;;;;;;;;5048463;28;20198;-95
2021/12/07 19:05:26;;;;;;;68.03;11.70;;;;;;;;;;5053646;28;20220;-96
2021/12/07 19:07:52;;;;;;;67.40;11.05;;;;;;;;;;5049998;28;20249;-94
2021/12/07 19:10:20;;;;;;;68.27;11.60;;;;;;;;;;5042007;28;20226;-95
2021/12/07 19:12:50;;;;;;;69.20;12.73;;;;;;;;;;5042905;28;20441;-96
2021/12/07 19:15:18;;;;;;;69.78;11.88;;;;;;;;;;5045144;28;20816;-95
2021/12/07 19:17:47;;;;;;;70.13;12.70;;;;;;;;;;5024303;28;20258;-94
2021/12/07 19:20:15;;;;;;;67.97;12.10;;;;;;;;;;5046585;28;20211;-96
2021/12/07 19:22:42;;;;;;;71.43;12.70;;;;;;;;;;5046822;28;20453;-95
2021/12/07 19:28:10;;;;;;;68.30;11.85;;;;;;;;;;5699476;22;20239;-96
2021/12/07 19:30:41;;;;;;;69.95;12.15;;;;;;;;;;5426264;22;20227;-96